Time;durP1;ratioP1;P1;durP2;ratioP2;P2;SDS_P1;SDS_P2;PMS_P1;PMS_P2;Temp;Humidity;BMP_temperature;BMP_pressure;BME280_temperature;BME280_humidity;BME280_pressure;Samples;Min_cycle;Max_cycle;Signal;HPM_P1;HPM_P2
2022/10/25 00:02:05;;;;;;;4.25;2.17;;;14.90;89.10;;;;;;5013255;28;20038;-67
2022/10/25 00:04:30;;;;;;;5.93;2.30;;;14.90;89.30;;;;;;5013012;28;20080;-68
2022/10/25 00:06:56;;;;;;;5.32;2.17;;;14.90;89.30;;;;;;5013145;28;20022;-68
2022/10/25 00:09:21;;;;;;;3.83;1.50;;;14.90;89.30;;;;;;5013095;28;20042;-68
2022/10/25 00:11:47;;;;;;;3.95;1.67;;;15.00;89.20;;;;;;5012784;28;20109;-67
2022/10/25 00:14:17;;;;;;;3.70;1.60;;;15.00;89.10;;;;;;5013286;28;20105;-67
2022/10/25 00:16:43;;;;;;;4.45;2.10;;;15.00;89.10;;;;;;5012755;28;20054;-68
2022/10/25 00:19:10;;;;;;;4.93;2.10;;;15.00;89.00;;;;;;5012973;28;20064;-67
2022/10/25 00:21:36;;;;;;;3.72;1.70;;;15.00;89.00;;;;;;5012881;28;20026;-67
2022/10/25 00:24:02;;;;;;;5.22;1.90;;;15.00;89.00;;;;;;5013008;28;20527;-67
2022/10/25 00:26:27;;;;;;;6.07;2.90;;;15.00;89.00;;;;;;5013042;28;20029;-67
2022/10/25 00:28:54;;;;;;;8.05;2.72;;;15.00;89.10;;;;;;5012998;28;20022;-68
2022/10/25 00:31:20;;;;;;;5.53;2.10;;;15.00;89.30;;;;;;5011672;28;20022;-68
2022/10/25 00:33:45;;;;;;;7.10;2.80;;;15.00;89.30;;;;;;5012966;28;20044;-68
2022/10/25 00:36:17;;;;;;;6.53;2.50;;;15.00;89.30;;;;;;5012722;28;20024;-68
2022/10/25 00:38:44;;;;;;;4.53;1.95;;;15.00;89.30;;;;;;5012512;28;20064;-68
2022/10/25 00:41:12;;;;;;;6.07;2.40;;;15.00;89.30;;;;;;5012631;28;20030;-68
2022/10/25 00:43:55;;;;;;;5.03;2.28;;;15.00;89.20;;;;;;5010981;28;20156;-68
2022/10/25 00:46:30;;;;;;;4.07;2.42;;;15.00;89.30;;;;;;5012513;28;20030;-67
2022/10/25 00:49:07;;;;;;;6.38;2.83;;;15.00;89.30;;;;;;5012140;28;20014;-68
2022/10/25 00:51:40;;;;;;;5.30;2.30;;;15.00;89.30;;;;;;5011030;28;20030;-68
2022/10/25 00:54:09;;;;;;;5.97;2.40;;;15.00;89.20;;;;;;5012048;28;20042;-68
2022/10/25 00:56:39;;;;;;;4.80;2.35;;;15.00;89.20;;;;;;5012219;28;20021;-68
2022/10/25 00:59:09;;;;;;;5.38;2.40;;;15.00;89.30;;;;;;5011924;28;20504;-68
2022/10/25 01:01:36;;;;;;;3.67;2.55;;;15.00;89.30;;;;;;5010795;28;20118;-68
2022/10/25 01:04:06;;;;;;;5.38;2.92;;;14.90;89.90;;;;;;5010696;28;20022;-68
2022/10/25 01:06:40;;;;;;;5.90;3.28;;;14.90;89.30;;;;;;5012131;28;20037;-67
2022/10/25 01:09:12;;;;;;;5.70;2.88;;;15.00;89.30;;;;;;5011669;28;20025;-68
2022/10/25 01:11:38;;;;;;;4.07;2.58;;;15.00;89.30;;;;;;5011963;28;20114;-67
2022/10/25 01:14:06;;;;;;;3.95;2.58;;;15.00;89.30;;;;;;5011590;28;20564;-68
2022/10/25 01:16:40;;;;;;;6.80;3.13;;;15.10;89.20;;;;;;5011779;28;20419;-68
2022/10/25 01:19:34;;;;;;;4.30;2.67;;;15.00;89.10;;;;;;5011623;28;20030;-67
2022/10/25 01:22:10;;;;;;;6.00;3.10;;;15.00;89.10;;;;;;5011826;28;20392;-68
2022/10/25 01:25:15;;;;;;;4.43;2.85;;;15.10;89.10;;;;;;5010104;28;20032;-68
2022/10/25 01:28:08;;;;;;;4.18;2.70;;;15.10;89.00;;;;;;5011701;28;20128;-68
2022/10/25 01:30:59;;;;;;;8.15;3.28;;;15.10;88.90;;;;;;5011390;28;20049;-68
2022/10/25 01:33:42;;;;;;;4.97;2.80;;;15.10;88.90;;;;;;5011689;28;20026;-68
2022/10/25 01:36:13;;;;;;;6.07;3.60;;;15.10;88.90;;;;;;5011356;28;20022;-68
2022/10/25 01:38:53;;;;;;;5.07;2.70;;;15.10;88.90;;;;;;5011331;28;20022;-68
2022/10/25 01:41:37;;;;;;;8.20;3.95;;;15.10;88.90;;;;;;5011159;28;20484;-68
2022/10/25 01:44:11;;;;;;;6.45;3.50;;;15.10;88.90;;;;;;5009752;28;20053;-68
2022/10/25 01:46:45;;;;;;;7.68;3.40;;;15.10;89.10;;;;;;5011090;28;20456;-68
2022/10/25 01:49:18;;;;;;;6.30;3.33;;;15.10;89.20;;;;;;5011151;28;20056;-68
2022/10/25 01:51:43;;;;;;;7.90;3.38;;;15.10;89.20;;;;;;5010689;28;20431;-68
2022/10/25 01:54:24;;;;;;;6.10;2.95;;;15.10;89.30;;;;;;5010871;28;20029;-68
2022/10/25 01:57:10;;;;;;;4.07;2.70;;;15.10;89.30;;;;;;5010771;28;20033;-68
2022/10/25 02:00:13;;;;;;;7.47;3.53;;;15.10;89.30;;;;;;5010888;28;20477;-68
2022/10/25 02:02:44;;;;;;;6.38;3.17;;;15.10;89.20;;;;;;5010351;28;20033;-68
2022/10/25 02:05:15;;;;;;;7.78;2.80;;;15.10;89.20;;;;;;5010855;28;20036;-68
2022/10/25 02:07:58;;;;;;;4.43;2.45;;;15.10;89.20;;;;;;5010624;28;20025;-68
2022/10/25 02:10:37;;;;;;;6.65;2.90;;;15.10;89.10;;;;;;5010748;28;20096;-68
2022/10/25 02:13:26;;;;;;;5.25;2.50;;;15.20;89.10;;;;;;5010710;28;20018;-68
2022/10/25 02:15:59;;;;;;;9.02;4.15;;;15.20;89.10;;;;;;5010578;28;20034;-69
2022/10/25 02:18:28;;;;;;;7.90;3.08;;;15.20;89.20;;;;;;5010549;28;20112;-68
2022/10/25 02:20:55;;;;;;;5.43;2.30;;;15.10;89.30;;;;;;5009373;28;20084;-68
2022/10/25 02:23:22;;;;;;;5.28;2.90;;;15.20;89.30;;;;;;5010445;28;20105;-68
2022/10/25 02:25:50;;;;;;;6.13;2.60;;;15.20;89.20;;;;;;5009443;28;20033;-68
2022/10/25 02:28:18;;;;;;;8.20;3.38;;;15.20;89.20;;;;;;5010504;28;20026;-68
2022/10/25 02:30:43;;;;;;;8.55;3.22;;;15.10;89.20;;;;;;5010593;28;20084;-68
2022/10/25 02:33:10;;;;;;;6.32;2.70;;;15.20;89.40;;;;;;5010447;28;20030;-68
2022/10/25 02:35:36;;;;;;;7.15;3.08;;;15.10;89.30;;;;;;5009721;28;20737;-68
2022/10/25 02:38:03;;;;;;;7.13;2.47;;;15.20;89.30;;;;;;5010517;28;20385;-68
2022/10/25 02:40:28;;;;;;;6.60;2.70;;;15.20;89.30;;;;;;5010591;28;20037;-68
2022/10/25 02:42:54;;;;;;;8.77;3.75;;;15.20;89.30;;;;;;5010848;28;20030;-68
2022/10/25 02:45:19;;;;;;;7.53;3.63;;;15.20;89.20;;;;;;5010660;28;20026;-68
2022/10/25 02:47:45;;;;;;;8.43;3.20;;;15.20;89.20;;;;;;5010741;28;20499;-68
2022/10/25 02:50:11;;;;;;;6.40;3.15;;;15.20;89.30;;;;;;5010304;28;20404;-68
2022/10/25 02:52:36;;;;;;;10.30;3.80;;;15.20;89.20;;;;;;5010484;28;20040;-68
2022/10/25 02:55:02;;;;;;;8.82;3.10;;;15.20;89.30;;;;;;5011735;28;20508;-68
2022/10/25 02:57:35;;;;;;;8.23;3.00;;;15.20;89.40;;;;;;5013805;28;20516;-68
2022/10/25 03:00:03;;;;;;;8.50;3.20;;;15.20;89.30;;;;;;5013973;28;20022;-68
2022/10/25 03:02:28;;;;;;;8.27;4.07;;;15.20;89.30;;;;;;5012961;28;20030;-68
2022/10/25 03:04:54;;;;;;;10.45;4.57;;;15.20;89.30;;;;;;5012792;28;20519;-68
2022/10/25 03:07:19;;;;;;;10.88;3.83;;;15.20;89.30;;;;;;5014213;28;20022;-68
2022/10/25 03:09:45;;;;;;;10.23;4.10;;;15.20;89.30;;;;;;5014124;28;20619;-68
2022/10/25 03:12:10;;;;;;;6.72;3.50;;;15.10;89.30;;;;;;5014120;28;20025;-68
2022/10/25 03:14:36;;;;;;;8.95;3.75;;;15.20;89.40;;;;;;5014153;28;20048;-68
2022/10/25 03:17:02;;;;;;;9.35;3.97;;;15.20;89.30;;;;;;5013717;28;20636;-68
2022/10/25 03:19:27;;;;;;;9.77;4.30;;;15.20;89.20;;;;;;5013940;28;20018;-68
2022/10/25 03:21:53;;;;;;;7.10;3.70;;;15.20;89.30;;;;;;5012689;28;20492;-68
2022/10/25 03:24:18;;;;;;;13.27;4.47;;;15.20;89.20;;;;;;5013956;28;20029;-68
2022/10/25 03:26:44;;;;;;;9.98;4.43;;;15.20;89.30;;;;;;5013823;28;20025;-68
2022/10/25 03:29:09;;;;;;;9.18;3.67;;;15.20;89.10;;;;;;5013907;28;20026;-68
2022/10/25 03:31:35;;;;;;;6.47;3.33;;;15.20;89.10;;;;;;5013486;28;20030;-68
2022/10/25 03:34:01;;;;;;;6.82;3.33;;;15.20;89.10;;;;;;5013818;28;20444;-67
2022/10/25 03:36:26;;;;;;;6.70;3.20;;;15.30;89.10;;;;;;5013731;28;20026;-67
2022/10/25 03:38:52;;;;;;;10.30;3.95;;;15.30;89.10;;;;;;5012187;28;20021;-67
2022/10/25 03:41:17;;;;;;;7.75;4.10;;;15.20;89.10;;;;;;5012331;28;20496;-68
2022/10/25 03:43:43;;;;;;;9.15;4.07;;;15.20;89.10;;;;;;5013436;28;20041;-68
2022/10/25 03:46:08;;;;;;;8.05;3.70;;;15.20;89.10;;;;;;5013491;28;20091;-67
2022/10/25 03:48:34;;;;;;;11.20;4.40;;;15.20;89.10;;;;;;5013327;28;20093;-67
2022/10/25 03:51:00;;;;;;;8.65;4.28;;;15.20;89.10;;;;;;5013306;28;20358;-68
2022/10/25 03:53:25;;;;;;;7.05;3.90;;;15.30;89.00;;;;;;5013236;28;20030;-68
2022/10/25 03:55:51;;;;;;;10.57;4.90;;;15.20;88.90;;;;;;5013316;28;20437;-68
2022/10/25 03:58:17;;;;;;;6.60;4.25;;;15.30;89.00;;;;;;5013092;28;20010;-68
2022/10/25 04:00:42;;;;;;;7.38;3.83;;;15.30;88.90;;;;;;5013223;28;20392;-68
2022/10/25 04:03:08;;;;;;;7.00;3.58;;;15.20;88.90;;;;;;5013228;28;20038;-68
2022/10/25 04:05:33;;;;;;;8.25;3.60;;;15.20;88.80;;;;;;5012925;28;20022;-68
2022/10/25 04:07:59;;;;;;;5.75;3.03;;;15.30;88.80;;;;;;5013149;28;20034;-68
2022/10/25 04:10:25;;;;;;;6.20;3.42;;;15.30;88.70;;;;;;5012930;28;20029;-68
2022/10/25 04:12:51;;;;;;;7.03;4.03;;;15.30;88.60;;;;;;5013033;28;20022;-67
2022/10/25 04:15:17;;;;;;;10.13;4.30;;;15.30;88.60;;;;;;5012580;28;20022;-68
2022/10/25 04:17:43;;;;;;;7.60;3.92;;;15.30;88.60;;;;;;5012770;28;20033;-68
2022/10/25 04:20:09;;;;;;;10.27;3.83;;;15.30;88.60;;;;;;5011201;28;20032;-68
2022/10/25 04:22:34;;;;;;;8.50;4.10;;;15.30;88.50;;;;;;5012685;28;20072;-68
2022/10/25 04:25:00;;;;;;;7.70;3.35;;;15.30;88.50;;;;;;5012542;28;20057;-68
2022/10/25 04:27:25;;;;;;;7.03;3.25;;;15.30;88.40;;;;;;5012828;28;20022;-68
2022/10/25 04:29:51;;;;;;;10.20;4.80;;;15.30;88.30;;;;;;5012360;28;20025;-68
2022/10/25 04:32:16;;;;;;;6.47;3.53;;;15.30;88.20;;;;;;5012690;28;20029;-68
2022/10/25 04:34:42;;;;;;;8.95;4.22;;;15.30;88.30;;;;;;5012526;28;20030;-68
2022/10/25 04:37:07;;;;;;;9.85;5.25;;;15.30;88.20;;;;;;5012335;28;20211;-68
2022/10/25 04:39:33;;;;;;;8.38;3.80;;;15.30;88.20;;;;;;5012433;28;20034;-68
2022/10/25 04:41:58;;;;;;;6.40;3.17;;;15.20;88.20;;;;;;5012164;28;20037;-67
2022/10/25 04:44:24;;;;;;;8.00;3.40;;;15.20;88.20;;;;;;5012343;28;20045;-68
2022/10/25 04:46:50;;;;;;;5.85;3.13;;;15.20;88.20;;;;;;5012484;28;20385;-68
2022/10/25 04:49:16;;;;;;;5.20;2.60;;;15.30;88.20;;;;;;5009549;28;20096;-69
2022/10/25 04:51:42;;;;;;;6.30;2.75;;;15.30;88.20;;;;;;5011219;28;20072;-69
2022/10/25 04:54:10;;;;;;;7.68;3.15;;;15.30;88.10;;;;;;5011230;28;20436;-68
2022/10/25 04:56:35;;;;;;;8.15;3.88;;;15.30;88.20;;;;;;5011535;28;20025;-68
2022/10/25 04:59:01;;;;;;;8.40;4.20;;;15.30;88.10;;;;;;5012741;28;20026;-68
2022/10/25 05:01:26;;;;;;;4.95;3.10;;;15.20;88.10;;;;;;5013978;28;20022;-69
2022/10/25 05:03:52;;;;;;;10.63;4.38;;;15.20;88.00;;;;;;5013309;28;20042;-68
2022/10/25 05:06:21;;;;;;;7.95;3.38;;;15.20;88.00;;;;;;5014075;28;20036;-68
2022/10/25 05:08:49;;;;;;;5.70;3.10;;;15.20;88.10;;;;;;5012221;28;20037;-68
2022/10/25 05:11:17;;;;;;;7.32;3.38;;;15.20;88.10;;;;;;5013060;28;20065;-67
2022/10/25 05:13:43;;;;;;;6.93;3.80;;;15.20;88.10;;;;;;5011982;28;20025;-68
2022/10/25 05:16:16;;;;;;;6.93;3.63;;;15.20;88.10;;;;;;5015502;28;20041;-68
2022/10/25 05:18:44;;;;;;;5.32;3.10;;;15.20;88.20;;;;;;5015935;28;20029;-68
2022/10/25 05:21:10;;;;;;;6.85;3.20;;;15.20;88.10;;;;;;5013300;28;20033;-67
2022/10/25 05:23:36;;;;;;;6.60;4.20;;;15.20;88.10;;;;;;5011123;28;20061;-68
2022/10/25 05:26:08;;;;;;;6.30;3.88;;;15.20;88.10;;;;;;5012513;28;20064;-67
2022/10/25 05:28:34;;;;;;;;;;;15.20;88.10;;;;;;5013275;28;20034;-69
2022/10/25 05:31:23;;;;;;;6.85;3.55;;;15.20;87.90;;;;;;5012676;28;19909;-68
2022/10/25 05:33:51;;;;;;;9.05;3.85;;;15.10;88.00;;;;;;5012591;28;20088;-68
2022/10/25 05:36:18;;;;;;;7.13;3.22;;;15.10;88.20;;;;;;5012668;28;20045;-67
2022/10/25 05:38:43;;;;;;;14.30;5.22;;;15.10;88.30;;;;;;5010519;28;20076;-68
2022/10/25 05:41:11;;;;;;;6.35;3.58;;;15.10;88.40;;;;;;5012120;28;20026;-67
2022/10/25 05:43:37;;;;;;;5.85;3.67;;;15.10;89.00;;;;;;5010801;28;20030;-67
2022/10/25 05:46:05;;;;;;;4.97;2.80;;;15.10;88.40;;;;;;5011847;28;20112;-67
2022/10/25 05:48:32;;;;;;;7.03;3.40;;;15.10;88.40;;;;;;5011794;28;20026;-67
2022/10/25 05:51:14;;;;;;;5.45;3.20;;;15.00;88.30;;;;;;5010125;28;20080;-68
2022/10/25 05:53:44;;;;;;;12.33;4.90;;;15.00;88.30;;;;;;5005632;28;20511;-67
2022/10/25 05:56:09;;;;;;;7.70;4.50;;;14.90;88.30;;;;;;5011497;28;20311;-67
2022/10/25 05:58:35;;;;;;;6.45;3.60;;;14.90;88.50;;;;;;5010333;28;20053;-68
2022/10/25 06:01:01;;;;;;;4.95;3.05;;;14.90;88.60;;;;;;5010438;28;20022;-68
2022/10/25 06:03:27;;;;;;;7.95;3.40;;;14.90;88.70;;;;;;5011911;28;20022;-67
2022/10/25 06:05:52;;;;;;;7.78;4.25;;;14.90;88.70;;;;;;5008617;28;20089;-68
2022/10/25 06:08:18;;;;;;;7.13;3.88;;;14.90;88.60;;;;;;5010401;28;20029;-67
2022/10/25 06:10:44;;;;;;;6.32;3.38;;;14.90;88.70;;;;;;5011662;28;20037;-68
2022/10/25 06:13:09;;;;;;;5.20;3.42;;;14.80;88.70;;;;;;5008626;28;20146;-67
2022/10/25 06:15:37;;;;;;;8.30;3.65;;;14.80;88.70;;;;;;5010145;28;20049;-68
2022/10/25 06:18:02;;;;;;;7.82;3.72;;;14.70;88.80;;;;;;5011160;28;20036;-67
2022/10/25 06:20:28;;;;;;;4.75;2.65;;;14.70;89.00;;;;;;5010923;28;20124;-67
2022/10/25 06:22:53;;;;;;;9.30;4.00;;;14.70;89.00;;;;;;5011381;28;20484;-67
2022/10/25 06:25:19;;;;;;;6.72;3.25;;;14.70;89.10;;;;;;5011434;28;20393;-67
2022/10/25 06:27:44;;;;;;;5.68;2.80;;;14.70;89.10;;;;;;5011013;28;20030;-67
2022/10/25 06:30:10;;;;;;;8.52;3.25;;;14.70;89.10;;;;;;5010259;28;20034;-67
2022/10/25 06:32:37;;;;;;;6.13;3.53;;;14.70;89.10;;;;;;5011087;28;20022;-67
2022/10/25 06:35:03;;;;;;;7.68;4.00;;;14.70;89.10;;;;;;5011429;28;20069;-67
2022/10/25 06:37:29;;;;;;;7.15;3.85;;;14.70;89.10;;;;;;5010992;28;20058;-68
2022/10/25 06:39:54;;;;;;;8.55;4.82;;;14.70;89.20;;;;;;5010733;28;20096;-67
2022/10/25 06:42:20;;;;;;;6.05;3.22;;;14.70;89.10;;;;;;5010635;28;20030;-68
2022/10/25 06:44:45;;;;;;;5.68;3.42;;;14.70;89.20;;;;;;5009118;28;20026;-68
2022/10/25 06:47:11;;;;;;;6.53;3.15;;;14.70;89.20;;;;;;5009588;28;20022;-69
2022/10/25 06:49:36;;;;;;;6.65;3.58;;;14.70;89.20;;;;;;5008880;28;20026;-67
2022/10/25 06:52:02;;;;;;;5.88;3.35;;;14.60;89.20;;;;;;5010731;28;20026;-68
2022/10/25 06:54:28;;;;;;;9.00;5.10;;;14.70;89.30;;;;;;5010494;28;20018;-68
2022/10/25 06:56:53;;;;;;;7.32;3.97;;;14.70;89.20;;;;;;5011023;28;20018;-69
2022/10/25 06:59:19;;;;;;;8.40;3.85;;;14.60;89.20;;;;;;5010803;28;20036;-68
2022/10/25 07:01:45;;;;;;;6.80;4.20;;;14.60;89.20;;;;;;5009927;28;20463;-68
2022/10/25 07:04:11;;;;;;;7.15;3.58;;;14.60;89.30;;;;;;5012905;28;20719;-68
2022/10/25 07:06:36;;;;;;;7.65;4.15;;;14.60;89.30;;;;;;5009050;28;20026;-69
2022/10/25 07:09:03;;;;;;;8.23;3.47;;;14.60;89.30;;;;;;5009978;28;20049;-68
2022/10/25 07:11:31;;;;;;;8.52;4.40;;;14.60;89.30;;;;;;5010073;28;20034;-68
2022/10/25 07:13:58;;;;;;;4.10;2.33;;;14.70;89.30;;;;;;5010366;28;20093;-68
2022/10/25 07:16:24;;;;;;;5.90;3.15;;;14.70;89.20;;;;;;5008701;28;20048;-68
2022/10/25 07:18:50;;;;;;;4.97;2.97;;;14.70;89.20;;;;;;5010331;28;20046;-68
2022/10/25 07:21:21;;;;;;;7.50;3.30;;;14.80;89.20;;;;;;5008575;28;20452;-68
2022/10/25 07:23:47;;;;;;;4.45;2.75;;;14.80;89.10;;;;;;5010682;28;20030;-68
2022/10/25 07:26:28;;;;;;;6.30;3.50;;;14.80;89.00;;;;;;5008803;28;20481;-68
2022/10/25 07:28:55;;;;;;;7.03;3.72;;;14.80;89.10;;;;;;5009443;28;20117;-68
2022/10/25 07:31:36;;;;;;;7.82;3.80;;;14.80;89.00;;;;;;5010205;28;20476;-68
2022/10/25 07:34:03;;;;;;;7.68;3.92;;;14.80;88.90;;;;;;5010804;28;20029;-68
2022/10/25 07:36:29;;;;;;;9.75;5.32;;;14.80;88.90;;;;;;5009020;28;20022;-68
2022/10/25 07:38:55;;;;;;;8.90;4.78;;;14.70;88.80;;;;;;5010393;28;20022;-68
2022/10/25 07:41:22;;;;;;;7.97;4.32;;;14.70;88.80;;;;;;5010945;28;20030;-69
2022/10/25 07:43:47;;;;;;;6.35;4.20;;;14.70;88.90;;;;;;5014009;28;20033;-68
2022/10/25 07:46:13;;;;;;;7.70;4.20;;;14.80;88.80;;;;;;5014191;28;20033;-68
2022/10/25 07:48:38;;;;;;;7.07;3.70;;;14.80;88.80;;;;;;5013854;28;20034;-67
2022/10/25 07:51:06;;;;;;;6.70;3.60;;;14.90;88.80;;;;;;5014016;28;20105;-68
2022/10/25 07:53:31;;;;;;;6.90;4.30;;;14.90;88.70;;;;;;5013573;28;20030;-68
2022/10/25 07:55:57;;;;;;;6.22;3.55;;;14.90;88.50;;;;;;5013942;28;20100;-67
2022/10/25 07:58:22;;;;;;;10.38;3.90;;;14.90;88.50;;;;;;5013583;28;20018;-68
2022/10/25 08:00:48;;;;;;;8.73;4.32;;;14.90;88.40;;;;;;5013592;28;20036;-68
2022/10/25 08:03:16;;;;;;;9.90;4.68;;;14.90;88.20;;;;;;5013499;28;20026;-68
2022/10/25 08:05:46;;;;;;;7.25;3.95;;;15.00;88.20;;;;;;5013674;28;20033;-68
2022/10/25 08:08:13;;;;;;;6.60;4.05;;;15.00;88.10;;;;;;5013445;28;20112;-67
2022/10/25 08:10:41;;;;;;;7.30;4.47;;;15.00;88.00;;;;;;5013571;28;20489;-68
2022/10/25 08:13:06;;;;;;;8.38;4.93;;;15.10;88.00;;;;;;5013190;28;20022;-68
2022/10/25 08:15:32;;;;;;;7.63;4.90;;;15.00;87.90;;;;;;5013466;28;20014;-68
2022/10/25 08:17:59;;;;;;;8.27;4.55;;;15.10;87.90;;;;;;5013348;28;20485;-68
2022/10/25 08:20:25;;;;;;;8.55;3.95;;;15.10;87.90;;;;;;5013448;28;20144;-68
2022/10/25 08:22:51;;;;;;;7.63;4.57;;;15.10;87.80;;;;;;5013546;28;20057;-69
2022/10/25 08:25:16;;;;;;;8.65;4.50;;;15.10;87.70;;;;;;5011795;28;20029;-68
2022/10/25 08:27:42;;;;;;;7.65;4.28;;;15.10;87.70;;;;;;5013283;28;20038;-68
2022/10/25 08:30:08;;;;;;;7.25;4.20;;;15.20;87.80;;;;;;5012955;28;20026;-68
2022/10/25 08:32:37;;;;;;;6.90;4.53;;;15.20;87.60;;;;;;5013278;28;20392;-68
2022/10/25 08:35:03;;;;;;;6.93;4.40;;;15.30;87.50;;;;;;5011624;28;20080;-68
2022/10/25 08:37:28;;;;;;;11.07;5.45;;;15.30;87.30;;;;;;5013500;28;20030;-67
2022/10/25 08:39:54;;;;;;;7.60;4.55;;;15.40;87.10;;;;;;5013058;28;20026;-69
2022/10/25 08:42:44;;;;;;;8.77;5.78;;;15.40;87.10;;;;;;5013373;28;20018;-68
2022/10/25 08:45:32;;;;;;;10.85;5.10;;;15.40;86.80;;;;;;5013380;28;20018;-69
2022/10/25 08:47:59;;;;;;;6.97;4.85;;;15.40;86.90;;;;;;5013880;28;20354;-69
2022/10/25 08:50:36;;;;;;;5.70;4.20;;;15.40;86.80;;;;;;5011853;28;20030;-68
2022/10/25 08:53:05;;;;;;;6.18;4.55;;;15.50;86.80;;;;;;5012829;28;20024;-69
2022/10/25 08:55:42;;;;;;;7.28;4.50;;;15.50;86.70;;;;;;5014050;28;20017;-68
2022/10/25 08:58:23;;;;;;;7.65;5.40;;;15.60;86.70;;;;;;5013933;28;20036;-69
2022/10/25 09:00:48;;;;;;;10.77;5.95;;;15.60;86.50;;;;;;5015036;28;20118;-68
2022/10/25 09:03:23;;;;;;;9.68;5.90;;;15.60;86.50;;;;;;5016394;28;20054;-68
2022/10/25 09:06:09;;;;;;;7.43;5.60;;;15.60;86.50;;;;;;5021557;28;20045;-69
2022/10/25 09:08:53;;;;;;;8.55;6.20;;;15.60;86.50;;;;;;5016620;28;20116;-68
2022/10/25 09:12:02;;;;;;;8.65;6.55;;;15.60;86.30;;;;;;5016149;28;20079;-68
2022/10/25 09:14:42;;;;;;;10.38;7.95;;;15.70;86.30;;;;;;5016962;28;20022;-67
2022/10/25 09:17:16;;;;;;;11.38;8.05;;;15.70;86.00;;;;;;5015775;28;20037;-68
2022/10/25 09:20:05;;;;;;;11.38;7.65;;;15.70;85.90;;;;;;5014831;28;20026;-68
2022/10/25 09:22:45;;;;;;;11.07;6.70;;;15.80;85.80;;;;;;5015927;28;20022;-69
2022/10/25 09:25:27;;;;;;;11.93;9.23;;;15.80;85.60;;;;;;5015551;28;20014;-68
2022/10/25 09:27:57;;;;;;;;;;;15.80;85.50;;;;;;5013221;28;20703;-68
2022/10/25 09:30:23;;;;;;;7.88;6.15;;;15.80;85.40;;;;;;5012207;28;19956;-68
2022/10/25 09:32:54;;;;;;;8.18;6.35;;;15.90;85.40;;;;;;5012065;28;20495;-69
2022/10/25 09:35:47;;;;;;;9.10;6.40;;;16.00;85.20;;;;;;5012290;28;20043;-68
2022/10/25 09:38:24;;;;;;;8.40;6.10;;;16.10;85.00;;;;;;5011804;28;20034;-68
2022/10/25 09:41:20;;;;;;;10.10;7.05;;;16.10;84.90;;;;;;5008590;28;20409;-68
2022/10/25 09:43:58;;;;;;;9.95;7.45;;;16.10;84.70;;;;;;4992207;28;20061;-67
2022/10/25 09:46:40;;;;;;;9.38;6.90;;;16.10;84.40;;;;;;4991979;28;20022;-69
2022/10/25 09:49:28;;;;;;;12.18;9.15;;;16.20;84.60;;;;;;4990719;28;20088;-68
2022/10/25 09:52:02;;;;;;;10.10;7.07;;;16.20;84.20;;;;;;4992093;28;20026;-68
2022/10/25 09:54:38;;;;;;;11.43;7.55;;;16.20;84.10;;;;;;4990625;28;20069;-67
2022/10/25 09:57:04;;;;;;;9.43;7.53;;;16.20;84.10;;;;;;4992000;28;20447;-67
2022/10/25 09:59:30;;;;;;;14.00;10.18;;;16.20;84.10;;;;;;4992075;28;20101;-69
2022/10/25 10:01:55;;;;;;;12.68;8.85;;;16.20;83.80;;;;;;4992313;28;20109;-69
2022/10/25 10:04:30;;;;;;;10.20;7.22;;;16.20;84.00;;;;;;4990632;28;20026;-68
2022/10/25 10:07:10;;;;;;;9.60;7.50;;;16.20;84.00;;;;;;4991900;28;20037;-68
2022/10/25 10:09:39;;;;;;;9.18;6.82;;;16.30;83.80;;;;;;4990367;28;20033;-68
2022/10/25 10:12:06;;;;;;;10.10;7.03;;;16.30;84.40;;;;;;4990833;28;20393;-69
2022/10/25 10:14:51;;;;;;;10.90;7.20;;;16.30;83.70;;;;;;4990679;28;20485;-66
2022/10/25 10:17:18;;;;;;;11.43;7.00;;;16.30;83.60;;;;;;4991721;28;20068;-68
2022/10/25 10:20:10;;;;;;;11.32;6.97;;;16.40;83.50;;;;;;5007136;28;20026;-67
2022/10/25 10:22:43;;;;;;;9.77;7.50;;;16.40;83.40;;;;;;4991731;28;20528;-67
2022/10/25 10:25:15;;;;;;;9.60;6.93;;;16.40;83.20;;;;;;4991727;28;20060;-67
2022/10/25 10:27:41;;;;;;;13.45;8.63;;;16.30;83.10;;;;;;4991435;28;20500;-67
2022/10/25 10:30:08;;;;;;;11.60;7.72;;;16.30;83.00;;;;;;4991401;28;20054;-68
2022/10/25 10:32:35;;;;;;;10.00;7.15;;;16.30;83.00;;;;;;4991207;28;20106;-67
2022/10/25 10:35:03;;;;;;;10.07;7.68;;;16.30;83.10;;;;;;4993796;28;20029;-67
2022/10/25 10:37:31;;;;;;;8.25;5.75;;;16.30;83.00;;;;;;4993653;28;20026;-67
2022/10/25 10:40:02;;;;;;;12.15;8.40;;;16.30;83.20;;;;;;4995717;28;20022;-68
2022/10/25 10:42:36;;;;;;;7.53;5.90;;;16.30;82.90;;;;;;4991374;28;20061;-66
2022/10/25 10:45:07;;;;;;;9.23;6.13;;;16.30;83.00;;;;;;4991327;28;20022;-67
2022/10/25 10:47:56;;;;;;;9.23;5.90;;;16.40;83.00;;;;;;4991044;28;20030;-67
2022/10/25 10:50:23;;;;;;;10.18;6.07;;;16.50;83.40;;;;;;4990513;28;20501;-67
2022/10/25 10:52:56;;;;;;;8.23;5.55;;;16.60;82.80;;;;;;4990978;28;20097;-66
2022/10/25 10:55:32;;;;;;;10.18;6.57;;;16.70;82.80;;;;;;4990978;28;20469;-66
2022/10/25 10:58:25;;;;;;;10.02;6.95;;;16.80;82.50;;;;;;4990885;28;20101;-67
2022/10/25 11:00:59;;;;;;;10.65;7.05;;;16.90;82.80;;;;;;4990654;28;20492;-67
2022/10/25 11:03:43;;;;;;;9.15;6.20;;;16.90;81.90;;;;;;4991091;28;20607;-67
2022/10/25 11:06:13;;;;;;;9.32;5.70;;;17.00;81.90;;;;;;4991227;28;20027;-67
2022/10/25 11:08:40;;;;;;;10.25;6.65;;;17.10;81.70;;;;;;4990994;28;20031;-67
2022/10/25 11:11:25;;;;;;;10.55;6.10;;;17.00;81.10;;;;;;4989649;28;20029;-67
2022/10/25 11:13:54;;;;;;;7.43;5.15;;;17.00;81.00;;;;;;4990655;28;20036;-68
2022/10/25 11:16:42;;;;;;;9.57;5.57;;;17.00;81.00;;;;;;4992967;28;20085;-68
2022/10/25 11:19:21;;;;;;;8.82;5.90;;;17.10;80.90;;;;;;4994628;28;20015;-68
2022/10/25 11:22:03;;;;;;;9.25;6.10;;;17.10;80.70;;;;;;4994692;28;20034;-67
2022/10/25 11:24:52;;;;;;;9.80;6.15;;;17.10;80.20;;;;;;4994592;28;20037;-67
2022/10/25 11:27:34;;;;;;;9.70;5.65;;;17.20;80.10;;;;;;4994847;28;20034;-68
2022/10/25 11:30:15;;;;;;;8.65;5.88;;;17.30;79.70;;;;;;4994659;28;20031;-67
2022/10/25 11:33:12;;;;;;;9.82;6.53;;;17.20;79.70;;;;;;4994689;28;20026;-67
2022/10/25 11:35:58;;;;;;;9.25;5.25;;;17.30;79.40;;;;;;4994541;28;20109;-68
2022/10/25 11:38:42;;;;;;;10.52;6.18;;;17.40;79.40;;;;;;4994582;28;20018;-67
2022/10/25 11:41:17;;;;;;;7.10;4.65;;;17.60;79.00;;;;;;4994323;28;20026;-68
2022/10/25 11:43:43;;;;;;;7.85;5.40;;;18.00;78.30;;;;;;4994491;28;20026;-67
2022/10/25 11:46:22;;;;;;;10.05;6.22;;;18.90;76.00;;;;;;4994500;28;20125;-68
2022/10/25 11:49:18;;;;;;;10.57;6.50;;;18.80;74.60;;;;;;4993818;28;20026;-67
2022/10/25 11:52:08;;;;;;;9.15;5.22;;;19.10;74.30;;;;;;4994823;28;20081;-67
2022/10/25 11:54:53;;;;;;;7.38;5.00;;;19.40;73.60;;;;;;4994588;28;20041;-68
2022/10/25 11:57:43;;;;;;;6.75;4.20;;;19.30;72.70;;;;;;4994786;28;20029;-68
2022/10/25 12:00:14;;;;;;;6.75;3.70;;;18.80;73.40;;;;;;4994355;28;20027;-67
2022/10/25 12:03:09;;;;;;;6.63;3.97;;;18.40;74.30;;;;;;4994273;28;20097;-68
2022/10/25 12:05:46;;;;;;;6.22;3.58;;;18.30;75.00;;;;;;4993199;28;20268;-67
2022/10/25 12:08:38;;;;;;;7.95;3.45;;;18.30;75.10;;;;;;4994199;28;20030;-68
2022/10/25 12:11:09;;;;;;;5.20;3.08;;;18.40;75.00;;;;;;4994201;28;20076;-67
2022/10/25 12:13:40;;;;;;;5.47;3.13;;;18.50;75.50;;;;;;4994161;28;20029;-67
2022/10/25 12:16:12;;;;;;;6.00;4.03;;;18.70;74.70;;;;;;4994282;28;20026;-68
2022/10/25 12:18:50;;;;;;;7.10;3.83;;;18.70;74.10;;;;;;4995497;28;20485;-67
2022/10/25 12:21:26;;;;;;;6.28;4.07;;;18.80;73.80;;;;;;4996409;28;20034;-68
2022/10/25 12:23:53;;;;;;;6.22;4.63;;;18.90;73.60;;;;;;4997110;28;20070;-67
2022/10/25 12:26:33;;;;;;;11.82;5.57;;;19.00;72.70;;;;;;4994454;28;20037;-68
2022/10/25 12:29:03;;;;;;;7.32;4.47;;;18.90;71.50;;;;;;4992918;28;20575;-67
2022/10/25 12:31:35;;;;;;;7.10;4.00;;;19.00;72.10;;;;;;4992953;28;20129;-67
2022/10/25 12:34:05;;;;;;;5.97;4.30;;;19.00;72.20;;;;;;4992378;28;20026;-67
2022/10/25 12:36:39;;;;;;;6.57;3.85;;;19.00;71.90;;;;;;4992210;28;20104;-67
2022/10/25 12:39:17;;;;;;;6.75;4.45;;;19.00;71.70;;;;;;4993358;28;20473;-67
2022/10/25 12:41:47;;;;;;;6.15;3.40;;;19.00;70.80;;;;;;4993446;28;20022;-67
2022/10/25 12:44:26;;;;;;;3.70;2.60;;;19.20;71.00;;;;;;4993510;28;20485;-68
2022/10/25 12:46:51;;;;;;;5.28;2.70;;;19.50;71.00;;;;;;4993629;28;20033;-67
2022/10/25 12:49:56;;;;;;;4.72;2.83;;;19.70;70.70;;;;;;4993428;28;20034;-68
2022/10/25 12:52:33;;;;;;;4.28;2.50;;;19.90;70.30;;;;;;4993373;28;20027;-67
2022/10/25 12:55:24;;;;;;;5.88;3.95;;;19.90;69.70;;;;;;4993300;28;20578;-67
2022/10/25 12:58:11;;;;;;;5.15;3.25;;;19.80;68.40;;;;;;4993302;28;20027;-67
2022/10/25 13:01:06;;;;;;;5.38;3.30;;;19.50;68.80;;;;;;4991907;28;20454;-69
2022/10/25 13:03:37;;;;;;;5.57;3.45;;;19.30;69.30;;;;;;4992263;28;20069;-66
2022/10/25 13:06:12;;;;;;;6.22;3.70;;;19.10;69.80;;;;;;4991800;28;20444;-66
2022/10/25 13:08:39;;;;;;;4.93;3.30;;;19.00;70.20;;;;;;4991839;28;20137;-66